Time;durP1;ratioP1;P1;durP2;ratioP2;P2;SDS_P1;SDS_P2;PMS_P1;PMS_P2;Temp;Humidity;BMP_temperature;BMP_pressure;BME280_temperature;BME280_humidity;BME280_pressure;Samples;Min_cycle;Max_cycle;Signal;HPM_P1;HPM_P2
2023/01/10 00:01:58;;;;;;;2.40;1.30;;;5.00;99.90;;;;;;4992461;28;20215;-69
2023/01/10 00:04:25;;;;;;;1.50;1.10;;;5.00;99.90;;;;;;4990501;28;20217;-68
2023/01/10 00:06:51;;;;;;;1.63;1.30;;;5.00;99.90;;;;;;5002587;28;20555;-69
2023/01/10 00:09:17;;;;;;;1.60;1.17;;;5.00;99.90;;;;;;5002653;28;20461;-69
2023/01/10 00:14:28;;;;;;;1.20;1.10;;;5.00;99.90;;;;;;4998293;28;20194;-69
2023/01/10 00:16:53;;;;;;;1.20;1.10;;;5.00;99.90;;;;;;4992481;28;21009;-69
2023/01/10 00:19:19;;;;;;;1.50;1.30;;;5.00;99.90;;;;;;5003018;28;20441;-69
2023/01/10 00:21:44;;;;;;;2.80;1.77;;;5.00;99.90;;;;;;5000798;28;20214;-70
2023/01/10 00:24:21;;;;;;;10.67;2.83;;;5.00;99.90;;;;;;4995953;28;20652;-69
2023/01/10 00:26:50;;;;;;;1.30;1.07;;;5.00;99.90;;;;;;5000629;28;20170;-69
2023/01/10 00:29:17;;;;;;;1.10;1.00;;;5.00;99.90;;;;;;4999317;28;20438;-69
2023/01/10 00:31:43;;;;;;;4.43;2.90;;;5.00;99.90;;;;;;4995834;28;20533;-69
2023/01/10 00:34:08;;;;;;;2.50;2.03;;;5.00;99.90;;;;;;4998889;28;20537;-68
2023/01/10 00:36:34;;;;;;;1.40;1.30;;;5.00;99.90;;;;;;4993724;28;20178;-69
2023/01/10 00:38:59;;;;;;;2.40;1.10;;;5.00;99.90;;;;;;4998522;28;20269;-69
2023/01/10 00:44:09;;;;;;;5.63;2.00;;;5.10;99.90;;;;;;4985216;28;20606;-68
2023/01/10 00:46:34;;;;;;;3.50;1.60;;;5.10;99.90;;;;;;4999558;28;20441;-69
2023/01/10 00:49:00;;;;;;;2.13;1.40;;;5.10;99.90;;;;;;4996252;28;20184;-69
2023/01/10 00:51:29;;;;;;;1.50;1.40;;;5.20;99.90;;;;;;5000109;28;20685;-69
2023/01/10 00:53:55;;;;;;;1.50;1.40;;;5.10;99.90;;;;;;5001312;28;20465;-69
2023/01/10 00:56:20;;;;;;;2.77;1.30;;;5.00;99.90;;;;;;5000285;28;20185;-69
2023/01/10 00:58:46;;;;;;;1.40;1.30;;;5.00;99.90;;;;;;4991082;28;20172;-69
2023/01/10 01:01:11;;;;;;;1.43;1.20;;;5.00;99.90;;;;;;4999897;28;20211;-70
2023/01/10 01:03:37;;;;;;;1.67;1.23;;;5.00;99.90;;;;;;4999917;28;20211;-69
2023/01/10 01:06:05;;;;;;;2.70;1.53;;;5.00;99.90;;;;;;4996091;28;20221;-69
2023/01/10 01:08:30;;;;;;;1.90;1.73;;;5.10;99.90;;;;;;4994687;28;20623;-69
2023/01/10 01:10:56;;;;;;;1.90;1.50;;;5.10;99.90;;;;;;4996224;28;20458;-69
2023/01/10 01:13:21;;;;;;;1.80;1.70;;;5.10;99.90;;;;;;4998962;28;20525;-68
2023/01/10 01:15:48;;;;;;;2.17;1.97;;;5.10;99.90;;;;;;5004065;28;20182;-69
2023/01/10 01:18:16;;;;;;;2.63;1.90;;;5.10;99.90;;;;;;5002723;28;20219;-70
2023/01/10 01:20:42;;;;;;;2.57;1.83;;;5.10;99.90;;;;;;5002185;28;20438;-69
2023/01/10 01:23:08;;;;;;;4.10;1.70;;;5.00;99.90;;;;;;5003391;28;20445;-69
2023/01/10 01:25:34;;;;;;;1.80;1.70;;;5.00;99.90;;;;;;4996467;28;20960;-70
2023/01/10 01:27:59;;;;;;;1.70;1.60;;;5.00;99.90;;;;;;5005902;28;20179;-69
2023/01/10 01:30:25;;;;;;;1.70;1.60;;;5.00;99.90;;;;;;5005108;28;20459;-69
2023/01/10 01:32:50;;;;;;;1.87;1.67;;;5.00;99.90;;;;;;5002063;28;20191;-68
2023/01/10 01:35:16;;;;;;;1.53;1.43;;;5.00;99.90;;;;;;4994654;28;20194;-69
2023/01/10 01:37:42;;;;;;;1.90;1.40;;;5.00;99.90;;;;;;5004468;28;20187;-69
2023/01/10 01:40:12;;;;;;;2.10;1.20;;;5.10;99.90;;;;;;5000282;28;20199;-69
2023/01/10 01:42:38;;;;;;;1.43;1.33;;;5.10;99.90;;;;;;5006685;28;20552;-68
2023/01/10 01:45:07;;;;;;;1.60;1.20;;;5.10;99.90;;;;;;4998029;28;20553;-68
2023/01/10 01:47:34;;;;;;;1.70;1.60;;;5.10;99.90;;;;;;4998931;28;20286;-69
2023/01/10 01:49:59;;;;;;;1.63;1.20;;;5.10;99.90;;;;;;5001216;28;20434;-69
2023/01/10 01:52:33;;;;;;;1.67;1.37;;;5.10;99.90;;;;;;4995226;28;20538;-69
2023/01/10 01:55:01;;;;;;;5.53;2.37;;;5.10;99.90;;;;;;4990773;28;20263;-70
2023/01/10 01:57:27;;;;;;;7.17;4.00;;;5.10;99.90;;;;;;5001810;28;20525;-69
2023/01/10 01:59:54;;;;;;;1.40;1.30;;;5.00;99.90;;;;;;5004427;28;20466;-70
2023/01/10 02:02:33;;;;;;;1.33;1.23;;;5.00;99.90;;;;;;5005053;28;20527;-69
2023/01/10 02:05:10;;;;;;;1.43;1.33;;;5.00;99.90;;;;;;4996655;28;20841;-69
2023/01/10 02:07:39;;;;;;;1.40;1.30;;;5.00;99.90;;;;;;5001232;28;20465;-69
2023/01/10 02:10:20;;;;;;;1.30;1.20;;;5.00;99.90;;;;;;5000152;28;20445;-69
2023/01/10 02:12:48;;;;;;;1.47;0.80;;;5.00;99.90;;;;;;5007563;28;20481;-69
2023/01/10 02:15:16;;;;;;;0.90;0.80;;;4.90;99.90;;;;;;4996297;28;20538;-68
2023/01/10 02:17:41;;;;;;;1.23;1.13;;;4.90;99.90;;;;;;5004145;28;20522;-68
2023/01/10 02:20:12;;;;;;;1.57;1.07;;;4.80;99.90;;;;;;5003879;28;20537;-68
2023/01/10 02:23:11;;;;;;;1.17;1.07;;;4.80;99.90;;;;;;5004731;28;20202;-68
2023/01/10 02:26:17;;;;;;;1.90;0.87;;;4.80;99.90;;;;;;5002264;28;20473;-69
2023/01/10 02:29:09;;;;;;;1.13;1.00;;;4.80;99.90;;;;;;5003288;28;20444;-69
2023/01/10 02:32:08;;;;;;;1.27;1.17;;;4.80;99.90;;;;;;5004636;28;20461;-69
2023/01/10 02:35:07;;;;;;;2.40;1.10;;;4.80;99.90;;;;;;5000377;28;21025;-68
2023/01/10 02:37:38;;;;;;;1.40;1.30;;;4.80;99.90;;;;;;5004980;28;20433;-69
2023/01/10 02:40:21;;;;;;;1.30;1.20;;;4.80;99.90;;;;;;4997790;28;20443;-69
2023/01/10 02:43:08;;;;;;;1.37;1.27;;;4.70;99.90;;;;;;5011888;28;20496;-68
2023/01/10 02:45:41;;;;;;;0.87;0.87;;;4.70;99.90;;;;;;4999134;28;20520;-68
2023/01/10 02:48:06;;;;;;;1.50;1.03;;;4.70;99.90;;;;;;4994215;28;20419;-69
2023/01/10 02:50:41;;;;;;;1.30;1.00;;;4.70;99.90;;;;;;4993697;28;20426;-68
2023/01/10 02:53:12;;;;;;;1.43;1.20;;;4.70;99.90;;;;;;4994252;28;20574;-68
2023/01/10 02:56:17;;;;;;;1.13;1.00;;;4.60;99.90;;;;;;4994238;28;20423;-68
2023/01/10 02:58:52;;;;;;;1.27;0.97;;;4.60;99.90;;;;;;4986321;28;20461;-71
2023/01/10 03:01:46;;;;;;;1.60;1.00;;;4.60;99.90;;;;;;4994097;28;20430;-69
2023/01/10 03:04:11;;;;;;;1.23;1.10;;;4.50;99.90;;;;;;4993956;28;20466;-71
2023/01/10 03:06:44;;;;;;;2.77;1.37;;;4.50;99.90;;;;;;4997341;28;20489;-71
2023/01/10 03:09:33;;;;;;;1.70;1.30;;;4.40;99.90;;;;;;4999289;28;20238;-68
2023/01/10 03:12:26;;;;;;;2.33;1.40;;;4.40;99.90;;;;;;4989010;28;20552;-69
2023/01/10 03:14:54;;;;;;;2.40;1.40;;;4.40;99.90;;;;;;5003388;28;20441;-69
2023/01/10 03:17:22;;;;;;;2.70;2.30;;;4.40;99.90;;;;;;5001406;28;20430;-68
2023/01/10 03:19:55;;;;;;;2.23;1.90;;;4.40;99.90;;;;;;4999198;28;20964;-68
2023/01/10 03:22:23;;;;;;;3.93;2.60;;;4.50;99.90;;;;;;5004428;28;20457;-68
2023/01/10 03:24:53;;;;;;;2.00;1.90;;;4.40;99.90;;;;;;5000803;28;20493;-69
2023/01/10 03:27:36;;;;;;;2.80;2.50;;;4.50;99.90;;;;;;4997382;28;20541;-69
2023/01/10 03:30:27;;;;;;;2.93;2.63;;;4.50;99.90;;;;;;4999254;28;20441;-69
2023/01/10 03:32:55;;;;;;;3.37;3.07;;;4.50;99.90;;;;;;5000217;28;20454;-70
2023/01/10 03:35:23;;;;;;;7.30;2.97;;;4.50;99.90;;;;;;4996126;28;20858;-69
2023/01/10 03:37:56;;;;;;;7.03;2.47;;;4.50;99.90;;;;;;5002622;28;20446;-71
2023/01/10 03:40:58;;;;;;;8.63;2.97;;;4.50;99.90;;;;;;5016189;28;20503;-70
2023/01/10 03:46:48;;;;;;;3.07;2.50;;;4.60;99.90;;;;;;4994746;28;20592;-69
2023/01/10 03:49:15;;;;;;;4.07;2.47;;;4.60;99.90;;;;;;4997505;28;20442;-69
2023/01/10 03:51:41;;;;;;;3.17;2.43;;;4.60;99.90;;;;;;5001221;28;20465;-69
2023/01/10 03:54:07;;;;;;;4.93;2.90;;;4.60;99.90;;;;;;5002745;28;20429;-69
2023/01/10 03:56:48;;;;;;;3.93;2.33;;;4.60;99.90;;;;;;4995723;28;20965;-70
2023/01/10 03:59:16;;;;;;;5.30;2.30;;;4.60;99.90;;;;;;4998678;28;20179;-70
2023/01/10 04:01:41;;;;;;;4.47;2.17;;;4.50;99.90;;;;;;5001224;28;20454;-69
2023/01/10 04:04:07;;;;;;;2.40;2.10;;;4.50;99.90;;;;;;5003745;28;20950;-70
2023/01/10 04:06:32;;;;;;;3.13;2.20;;;4.50;99.90;;;;;;5002208;28;20203;-70
2023/01/10 04:08:58;;;;;;;5.10;2.70;;;4.50;99.90;;;;;;5001350;28;20179;-70
2023/01/10 04:11:23;;;;;;;3.27;2.10;;;4.50;99.90;;;;;;4999769;28;20670;-70
2023/01/10 04:13:49;;;;;;;3.30;2.20;;;4.50;99.90;;;;;;5002698;28;20197;-69
2023/01/10 04:16:14;;;;;;;6.13;2.03;;;4.50;99.90;;;;;;5003367;28;20187;-70
2023/01/10 04:18:40;;;;;;;3.33;2.07;;;4.40;99.90;;;;;;4996395;28;20187;-69
2023/01/10 04:21:05;;;;;;;4.33;2.23;;;4.40;99.90;;;;;;4995929;28;20202;-70
2023/01/10 04:23:31;;;;;;;3.37;2.50;;;4.30;99.90;;;;;;5000061;28;20174;-70
2023/01/10 04:25:57;;;;;;;11.63;2.60;;;4.30;99.90;;;;;;5003591;28;20209;-70
2023/01/10 04:28:22;;;;;;;4.67;2.47;;;4.30;99.90;;;;;;4993789;28;20179;-70
2023/01/10 04:30:48;;;;;;;2.97;2.37;;;4.30;99.90;;;;;;4999585;28;20180;-70
2023/01/10 04:33:13;;;;;;;8.20;2.20;;;4.30;99.90;;;;;;5000825;28;20732;-70
2023/01/10 04:35:39;;;;;;;4.63;1.90;;;4.30;99.90;;;;;;5000248;28;20238;-69
2023/01/10 04:38:04;;;;;;;4.83;2.57;;;4.30;99.90;;;;;;4989133;28;20650;-70
2023/01/10 04:40:30;;;;;;;7.30;2.90;;;4.20;99.90;;;;;;4995332;28;20629;-69
2023/01/10 04:42:55;;;;;;;4.80;3.00;;;4.20;99.90;;;;;;5002673;28;20195;-69
2023/01/10 04:45:21;;;;;;;4.40;2.20;;;4.30;99.90;;;;;;5003486;28;20210;-70
2023/01/10 04:47:51;;;;;;;6.70;2.17;;;4.20;99.90;;;;;;4998601;28;20679;-70
2023/01/10 04:50:17;;;;;;;3.13;2.50;;;4.20;99.90;;;;;;4995308;28;20435;-70
2023/01/10 04:52:42;;;;;;;5.47;2.57;;;4.20;99.90;;;;;;5004757;28;21034;-69
2023/01/10 04:55:09;;;;;;;3.90;2.10;;;4.10;99.90;;;;;;5007398;28;20531;-70
2023/01/10 04:57:34;;;;;;;3.50;2.73;;;4.10;99.90;;;;;;5005543;28;20191;-70
2023/01/10 05:00:00;;;;;;;4.20;2.53;;;4.10;99.90;;;;;;5002456;28;20977;-70
2023/01/10 05:02:25;;;;;;;4.80;2.60;;;4.10;99.90;;;;;;5002624;28;20202;-70
2023/01/10 05:04:51;;;;;;;2.80;2.13;;;4.10;99.90;;;;;;5006115;28;20195;-69
2023/01/10 05:07:16;;;;;;;3.03;2.57;;;4.10;99.90;;;;;;5007087;28;20691;-70
2023/01/10 05:09:42;;;;;;;3.80;2.27;;;4.10;99.90;;;;;;5003259;28;20179;-69
2023/01/10 05:12:08;;;;;;;6.50;2.80;;;4.10;99.90;;;;;;5002567;28;20226;-70
2023/01/10 05:14:33;;;;;;;4.00;2.80;;;4.00;99.90;;;;;;5003769;28;20203;-71
2023/01/10 05:16:59;;;;;;;4.17;2.30;;;4.00;99.90;;;;;;5006021;28;20167;-71
2023/01/10 05:19:24;;;;;;;7.37;2.27;;;3.90;99.90;;;;;;5005659;28;20183;-71
2023/01/10 05:21:51;;;;;;;3.60;2.57;;;4.00;99.90;;;;;;4998316;28;20260;-71
2023/01/10 05:24:16;;;;;;;4.87;2.50;;;4.10;99.90;;;;;;4998030;28;20302;-71
2023/01/10 05:26:42;;;;;;;4.33;2.77;;;4.00;99.90;;;;;;5005090;28;20521;-71
2023/01/10 05:29:10;;;;;;;4.40;3.03;;;4.00;99.90;;;;;;5000707;28;20171;-71
2023/01/10 05:31:35;;;;;;;7.73;2.70;;;4.00;99.90;;;;;;4995159;28;20203;-70
2023/01/10 05:34:01;;;;;;;4.47;2.20;;;4.00;99.90;;;;;;5003853;28;20425;-71
2023/01/10 05:36:27;;;;;;;10.53;3.90;;;4.10;99.90;;;;;;5005704;28;20179;-71
2023/01/10 05:38:52;;;;;;;6.83;2.50;;;4.10;99.90;;;;;;5001541;28;20187;-71
2023/01/10 05:41:18;;;;;;;5.27;2.77;;;4.20;99.90;;;;;;5000421;28;20237;-71
2023/01/10 05:43:43;;;;;;;5.77;2.20;;;4.30;99.90;;;;;;5000537;28;20229;-71
2023/01/10 05:46:09;;;;;;;11.83;4.10;;;4.30;99.90;;;;;;5006388;28;20170;-71
2023/01/10 05:48:34;;;;;;;7.13;2.80;;;4.40;99.90;;;;;;5004668;28;20179;-71
2023/01/10 05:51:00;;;;;;;7.03;2.60;;;4.40;99.90;;;;;;5001169;28;20184;-71
2023/01/10 05:53:26;;;;;;;8.80;3.37;;;4.40;99.90;;;;;;4997204;28;20188;-71
2023/01/10 05:56:09;;;;;;;7.60;3.70;;;4.40;99.90;;;;;;4996308;28;20238;-71
2023/01/10 05:58:35;;;;;;;5.20;3.10;;;4.40;99.90;;;;;;5001046;28;20692;-71
2023/01/10 06:01:00;;;;;;;8.50;2.60;;;4.50;99.90;;;;;;4999867;28;20445;-70
2023/01/10 06:03:26;;;;;;;4.70;2.23;;;4.50;99.90;;;;;;4993851;28;20194;-71
2023/01/10 06:05:55;;;;;;;8.97;2.90;;;4.50;99.90;;;;;;5003863;28;20198;-71
2023/01/10 06:08:21;;;;;;;6.20;3.47;;;4.50;99.90;;;;;;4997970;28;20186;-70
2023/01/10 06:10:47;;;;;;;6.43;2.70;;;4.60;99.90;;;;;;5002311;28;20526;-71
2023/01/10 06:13:13;;;;;;;8.40;2.93;;;4.60;99.90;;;;;;5004162;28;20533;-70
2023/01/10 06:15:38;;;;;;;7.70;3.23;;;4.60;99.90;;;;;;5002463;28;20190;-71
2023/01/10 06:18:04;;;;;;;6.17;4.07;;;4.60;99.90;;;;;;5005724;28;20183;-71
2023/01/10 06:20:30;;;;;;;3.50;2.73;;;4.60;99.90;;;;;;4996458;28;20258;-71
2023/01/10 06:22:57;;;;;;;9.60;2.47;;;4.60;99.90;;;;;;5011050;28;20214;-72
2023/01/10 06:25:23;;;;;;;7.50;2.63;;;4.50;99.90;;;;;;5004972;28;20215;-70
2023/01/10 06:27:48;;;;;;;5.97;2.73;;;4.50;99.90;;;;;;4998397;28;20435;-71
2023/01/10 06:30:14;;;;;;;8.20;3.17;;;4.60;99.90;;;;;;4998913;28;20218;-72
2023/01/10 06:32:41;;;;;;;5.10;1.87;;;4.60;99.90;;;;;;5000000;28;20202;-71
2023/01/10 06:35:07;;;;;;;5.10;2.30;;;4.60;99.90;;;;;;5002181;28;20803;-71
2023/01/10 06:37:32;;;;;;;6.03;2.47;;;4.60;99.90;;;;;;5001577;28;20441;-72
2023/01/10 06:39:58;;;;;;;3.60;1.97;;;4.50;99.90;;;;;;5000347;28;20541;-71
2023/01/10 06:42:24;;;;;;;5.27;2.03;;;4.50;99.90;;;;;;5000964;28;20577;-71
2023/01/10 06:44:49;;;;;;;5.80;3.30;;;4.50;99.90;;;;;;5002639;28;20203;-69
2023/01/10 06:47:15;;;;;;;9.20;2.50;;;4.50;99.90;;;;;;4999045;28;20180;-72
2023/01/10 06:49:40;;;;;;;5.77;2.43;;;4.50;99.90;;;;;;5002334;28;20179;-71
2023/01/10 06:52:06;;;;;;;2.20;2.03;;;4.60;99.90;;;;;;4994112;28;20195;-71
2023/01/10 06:54:31;;;;;;;6.03;2.57;;;4.60;99.90;;;;;;5000392;28;20219;-70
2023/01/10 06:56:57;;;;;;;4.93;2.07;;;4.40;99.90;;;;;;5001521;28;20278;-71
2023/01/10 06:59:22;;;;;;;6.00;2.40;;;4.50;99.90;;;;;;4994484;28;20179;-72
2023/01/10 07:01:48;;;;;;;6.57;2.20;;;4.50;99.90;;;;;;4996219;28;20578;-71
2023/01/10 07:04:14;;;;;;;7.50;2.03;;;4.50;99.90;;;;;;4998842;28;20257;-71
2023/01/10 07:06:40;;;;;;;9.87;2.83;;;4.50;99.90;;;;;;5001646;28;20187;-70
2023/01/10 07:09:06;;;;;;;5.63;2.20;;;4.60;99.90;;;;;;4994756;28;20179;-70
2023/01/10 07:11:33;;;;;;;6.37;2.10;;;4.60;99.90;;;;;;4993467;28;20505;-71
2023/01/10 07:13:59;;;;;;;7.10;2.33;;;4.70;99.90;;;;;;4997271;28;20996;-71
2023/01/10 07:16:25;;;;;;;4.87;1.57;;;4.70;99.90;;;;;;5004754;28;20801;-72
2023/01/10 07:18:50;;;;;;;4.33;2.27;;;4.70;99.90;;;;;;5000131;28;20438;-72
2023/01/10 07:21:18;;;;;;;4.27;2.40;;;4.70;99.90;;;;;;5000568;28;20258;-72
2023/01/10 07:23:48;;;;;;;8.63;2.53;;;4.70;99.90;;;;;;5002283;28;20199;-68
2023/01/10 07:26:16;;;;;;;10.23;2.70;;;4.70;99.90;;;;;;5000405;28;20437;-72
2023/01/10 07:28:42;;;;;;;4.93;2.03;;;4.70;99.90;;;;;;5001266;28;20437;-72
2023/01/10 07:31:09;;;;;;;5.53;1.63;;;4.70;99.90;;;;;;4999768;28;20451;-71
2023/01/10 07:33:34;;;;;;;5.07;2.57;;;4.60;99.90;;;;;;5001056;28;20458;-71
2023/01/10 07:36:00;;;;;;;2.90;2.43;;;4.60;99.90;;;;;;5000336;28;20520;-71
2023/01/10 07:38:26;;;;;;;5.27;2.87;;;4.70;99.90;;;;;;5003223;28;20641;-70
2023/01/10 07:40:52;;;;;;;10.53;3.33;;;4.70;99.90;;;;;;5000266;28;20434;-71
2023/01/10 07:43:17;;;;;;;7.00;3.40;;;4.70;99.90;;;;;;4999483;28;20241;-71
2023/01/10 07:45:43;;;;;;;6.43;2.70;;;4.70;99.90;;;;;;5001719;28;20210;-71
2023/01/10 07:48:09;;;;;;;9.00;2.27;;;4.70;99.90;;;;;;4997837;28;20241;-71
2023/01/10 07:50:35;;;;;;;5.47;2.73;;;4.80;99.90;;;;;;5000755;28;20241;-71
2023/01/10 07:53:03;;;;;;;4.20;1.80;;;4.80;99.90;;;;;;4993229;28;20294;-72
2023/01/10 07:55:29;;;;;;;6.93;2.53;;;4.80;99.90;;;;;;4999392;28;20928;-71
2023/01/10 07:57:55;;;;;;;6.33;2.80;;;4.80;99.90;;;;;;5004471;28;21012;-71
2023/01/10 08:00:21;;;;;;;6.30;2.20;;;4.80;99.90;;;;;;5003365;28;20859;-72
2023/01/10 08:02:51;;;;;;;9.17;2.10;;;4.80;99.90;;;;;;4995350;28;20545;-71
2023/01/10 08:05:17;;;;;;;9.37;2.87;;;4.80;99.90;;;;;;5001455;28;20473;-71
2023/01/10 08:07:42;;;;;;;7.77;2.37;;;4.90;99.90;;;;;;4999797;28;20972;-72
2023/01/10 08:10:08;;;;;;;15.37;3.30;;;4.90;99.90;;;;;;4997465;28;20685;-72
2023/01/10 08:12:34;;;;;;;10.00;3.23;;;5.00;99.90;;;;;;4998656;28;20223;-72
2023/01/10 08:14:59;;;;;;;8.70;2.30;;;5.00;99.90;;;;;;5001759;28;20931;-69
2023/01/10 08:17:25;;;;;;;6.77;2.20;;;5.00;99.90;;;;;;5005652;28;20191;-72
2023/01/10 08:19:50;;;;;;;8.93;5.43;;;5.00;99.90;;;;;;4997772;28;20188;-72
2023/01/10 08:22:16;;;;;;;6.80;2.57;;;5.00;99.90;;;;;;4998986;28;20278;-70
2023/01/10 08:24:41;;;;;;;6.63;2.23;;;5.00;99.90;;;;;;4999224;28;20217;-72
2023/01/10 08:27:07;;;;;;;5.37;2.03;;;5.10;99.90;;;;;;4997339;28;20174;-72
2023/01/10 08:29:33;;;;;;;9.70;3.17;;;5.10;99.90;;;;;;5001708;28;20183;-71
2023/01/10 08:31:58;;;;;;;6.60;2.57;;;5.10;99.90;;;;;;4999196;28;20205;-72
2023/01/10 08:34:24;;;;;;;6.60;2.93;;;5.10;99.90;;;;;;4990878;28;20266;-72
2023/01/10 08:36:51;;;;;;;6.40;2.70;;;5.10;99.90;;;;;;5002198;28;20187;-72
2023/01/10 08:39:17;;;;;;;10.33;3.30;;;5.10;99.90;;;;;;5000704;28;20446;-72
2023/01/10 08:41:42;;;;;;;5.90;2.70;;;5.20;99.90;;;;;;5001667;28;20454;-72
2023/01/10 08:44:10;;;;;;;9.20;3.23;;;5.20;99.90;;;;;;5000006;28;20211;-70
2023/01/10 08:46:37;;;;;;;9.70;3.23;;;5.10;99.90;;;;;;4996090;28;20580;-71
2023/01/10 08:49:02;;;;;;;8.63;3.57;;;5.10;99.90;;;;;;5000045;28;20430;-71
2023/01/10 08:51:28;;;;;;;6.30;2.53;;;5.10;99.90;;;;;;4995352;28;20454;-72
2023/01/10 08:53:53;;;;;;;10.60;2.93;;;5.10;99.90;;;;;;5001676;28;20171;-72
2023/01/10 08:56:19;;;;;;;10.60;2.60;;;5.10;99.90;;;;;;5001270;28;20273;-70
2023/01/10 08:58:44;;;;;;;10.03;2.80;;;5.00;99.90;;;;;;5006151;28;20262;-72
2023/01/10 09:01:11;;;;;;;6.63;2.07;;;5.10;99.90;;;;;;5008780;28;20708;-72
2023/01/10 09:03:38;;;;;;;5.90;2.80;;;5.00;99.90;;;;;;4995489;28;20650;-72
2023/01/10 09:06:04;;;;;;;10.33;3.27;;;4.90;99.90;;;;;;5001792;28;20457;-72
2023/01/10 09:08:30;;;;;;;6.13;2.83;;;5.00;99.90;;;;;;5001081;28;20591;-71
2023/01/10 09:10:59;;;;;;;7.63;4.00;;;5.00;99.90;;;;;;4996703;28;20438;-72
2023/01/10 09:13:24;;;;;;;6.70;2.70;;;5.10;99.90;;;;;;4996659;28;20203;-70
2023/01/10 09:15:51;;;;;;;5.43;2.90;;;5.00;99.90;;;;;;5001525;28;20983;-72
2023/01/10 09:18:17;;;;;;;7.67;2.20;;;5.00;99.90;;;;;;5001715;28;20317;-70
2023/01/10 09:20:42;;;;;;;8.70;2.60;;;5.00;99.90;;;;;;5000822;28;20520;-71
2023/01/10 09:23:12;;;;;;;7.83;5.00;;;5.00;99.90;;;;;;4999391;28;20191;-72
2023/01/10 09:25:38;;;;;;;9.80;2.97;;;5.00;99.90;;;;;;4997440;28;20199;-70
2023/01/10 09:28:04;;;;;;;5.57;2.50;;;5.00;99.90;;;;;;5003067;28;20433;-72
2023/01/10 09:30:30;;;;;;;5.17;4.07;;;5.00;99.90;;;;;;4995280;28;20187;-70
2023/01/10 09:32:57;;;;;;;6.60;3.20;;;5.00;99.90;;;;;;5000727;28;20446;-72
2023/01/10 09:35:24;;;;;;;5.00;2.50;;;5.10;99.90;;;;;;4996291;28;20183;-71
2023/01/10 09:37:53;;;;;;;9.80;4.60;;;5.10;99.90;;;;;;5005113;28;20441;-72
2023/01/10 09:40:26;;;;;;;6.20;2.50;;;5.10;99.90;;;;;;5003102;28;20958;-70
2023/01/10 09:43:00;;;;;;;9.83;4.43;;;5.30;99.90;;;;;;5003165;28;20500;-72
2023/01/10 09:45:47;;;;;;;4.50;2.70;;;5.30;99.90;;;;;;4995311;28;20465;-72
2023/01/10 09:48:42;;;;;;;7.00;3.17;;;5.50;99.90;;;;;;4995474;28;20425;-72
2023/01/10 09:51:28;;;;;;;6.70;3.37;;;5.50;99.90;;;;;;5002144;28;20461;-73
2023/01/10 09:53:58;;;;;;;6.90;3.40;;;5.50;99.90;;;;;;5001440;28;20427;-71
2023/01/10 09:56:26;;;;;;;11.70;3.73;;;5.60;99.90;;;;;;4997852;28;20445;-71
2023/01/10 09:58:51;;;;;;;6.37;2.60;;;5.60;99.90;;;;;;5002882;28;20511;-72
2023/01/10 10:01:28;;;;;;;13.37;6.67;;;5.70;99.90;;;;;;5000389;28;20966;-72
2023/01/10 10:03:59;;;;;;;5.70;2.70;;;5.80;99.90;;;;;;5005940;28;20217;-72
2023/01/10 10:06:25;;;;;;;9.80;3.13;;;5.80;99.90;;;;;;4994904;28;20434;-71
2023/01/10 10:08:51;;;;;;;7.23;2.87;;;5.80;99.90;;;;;;5004016;28;20437;-71
2023/01/10 10:11:26;;;;;;;5.33;2.20;;;5.90;99.90;;;;;;5002453;28;20298;-72
2023/01/10 10:14:19;;;;;;;8.13;3.23;;;5.90;99.90;;;;;;5004780;28;20939;-69
2023/01/10 10:17:26;;;;;;;5.57;2.30;;;6.10;99.90;;;;;;5003322;28;20442;-72
2023/01/10 10:20:03;;;;;;;3.13;2.83;;;6.30;99.90;;;;;;5001999;28;20488;-72
2023/01/10 10:22:55;;;;;;;5.87;3.33;;;6.40;99.90;;;;;;5000847;28;20508;-71
2023/01/10 10:25:50;;;;;;;3.80;2.40;;;6.60;99.90;;;;;;4999346;28;20557;-72
2023/01/10 10:28:54;;;;;;;4.37;2.33;;;6.50;99.90;;;;;;4995089;28;20430;-72
2023/01/10 10:31:56;;;;;;;3.30;2.20;;;6.50;99.90;;;;;;4992494;28;20601;-71
2023/01/10 10:34:36;;;;;;;9.37;2.50;;;6.50;99.90;;;;;;4992767;28;20528;-72
2023/01/10 10:37:16;;;;;;;6.40;2.23;;;6.60;99.90;;;;;;5002747;28;20515;-72
2023/01/10 10:39:58;;;;;;;4.23;2.43;;;6.60;99.90;;;;;;5002687;28;20429;-72
2023/01/10 10:42:33;;;;;;;5.43;2.20;;;6.60;99.90;;;;;;5001656;28;20549;-72
2023/01/10 10:45:03;;;;;;;7.23;3.03;;;6.80;99.90;;;;;;4988756;28;20813;-72
2023/01/10 10:47:33;;;;;;;5.40;2.13;;;7.10;99.90;;;;;;5002737;28;20437;-73
2023/01/10 10:50:20;;;;;;;3.60;2.73;;;7.20;99.90;;;;;;4996285;28;20431;-73
2023/01/10 10:52:46;;;;;;;2.30;1.80;;;7.20;99.90;;;;;;5002725;28;20468;-72
2023/01/10 10:55:17;;;;;;;7.70;2.00;;;7.40;99.90;;;;;;4996939;28;20439;-72
2023/01/10 10:57:45;;;;;;;7.30;2.20;;;7.20;99.90;;;;;;5006641;28;20218;-73
2023/01/10 11:00:16;;;;;;;5.20;2.00;;;7.00;99.90;;;;;;5000367;28;20449;-72
2023/01/10 11:02:57;;;;;;;4.77;1.80;;;6.90;99.90;;;;;;5001021;28;20459;-70
2023/01/10 11:05:36;;;;;;;3.50;2.50;;;6.70;99.90;;;;;;4992533;28;20545;-72
2023/01/10 11:08:14;;;;;;;2.60;2.20;;;6.60;99.90;;;;;;4997302;28;20463;-73
2023/01/10 11:10:42;;;;;;;8.13;2.33;;;6.80;99.90;;;;;;4999752;28;20442;-72
2023/01/10 11:13:11;;;;;;;4.80;1.80;;;7.00;99.90;;;;;;5005378;28;20448;-70
2023/01/10 11:15:45;;;;;;;4.10;3.73;;;7.10;99.90;;;;;;4996069;28;20442;-70
2023/01/10 11:18:16;;;;;;;1.97;1.27;;;6.90;99.90;;;;;;5003013;28;20491;-70
2023/01/10 11:20:48;;;;;;;5.00;2.70;;;6.70;99.90;;;;;;5000729;28;20468;-69
2023/01/10 11:23:38;;;;;;;2.53;2.00;;;6.40;99.90;;;;;;4998179;28;20806;-70
2023/01/10 11:26:08;;;;;;;4.90;3.10;;;6.20;99.90;;;;;;4991764;28;20959;-70
2023/01/10 11:28:35;;;;;;;3.33;2.40;;;6.30;99.90;;;;;;5001461;28;20434;-69
2023/01/10 11:31:02;;;;;;;4.13;2.70;;;6.60;99.90;;;;;;5008986;28;20797;-70
2023/01/10 11:33:31;;;;;;;4.67;2.37;;;6.70;99.90;;;;;;4996456;28;20434;-70
2023/01/10 11:35:57;;;;;;;4.60;2.03;;;6.60;99.90;;;;;;5003177;28;20501;-70
2023/01/10 11:38:23;;;;;;;5.20;2.40;;;6.50;99.90;;;;;;5003491;28;20430;-69
2023/01/10 11:40:54;;;;;;;7.93;2.67;;;6.50;99.90;;;;;;4995162;28;20384;-71
2023/01/10 11:43:34;;;;;;;7.90;2.83;;;6.50;99.90;;;;;;5002899;28;20490;-69
2023/01/10 11:46:15;;;;;;;5.43;2.63;;;6.50;99.90;;;;;;4999572;28;20462;-70
2023/01/10 11:48:50;;;;;;;6.40;2.07;;;6.40;99.90;;;;;;4998798;28;20944;-69
2023/01/10 11:51:23;;;;;;;7.17;3.07;;;6.30;99.90;;;;;;5003155;28;20461;-70
2023/01/10 11:53:57;;;;;;;5.70;2.77;;;6.40;99.90;;;;;;5001298;28;20495;-70
2023/01/10 11:56:27;;;;;;;13.60;5.30;;;6.60;99.90;;;;;;4994243;28;20441;-70
2023/01/10 11:58:53;;;;;;;5.70;2.70;;;7.00;99.90;;;;;;4995137;28;20430;-70
2023/01/10 12:01:45;;;;;;;6.40;2.40;;;7.20;99.90;;;;;;5003135;28;20484;-70
2023/01/10 12:04:16;;;;;;;4.03;2.30;;;7.20;99.90;;;;;;4990257;28;20447;-71
2023/01/10 12:06:50;;;;;;;4.70;1.60;;;7.50;99.90;;;;;;4999526;28;20453;-70
2023/01/10 12:09:35;;;;;;;5.73;2.00;;;7.70;99.90;;;;;;5002849;28;20437;-69
2023/01/10 12:12:03;;;;;;;4.13;2.77;;;7.90;99.90;;;;;;4997785;28;20478;-70
2023/01/10 12:14:28;;;;;;;3.37;2.00;;;8.40;99.90;;;;;;4999934;28;20443;-70
2023/01/10 12:17:02;;;;;;;4.90;2.00;;;9.20;99.90;;;;;;5002636;28;20516;-70
2023/01/10 12:19:28;;;;;;;8.53;2.90;;;9.80;99.90;;;;;;4999568;28;20187;-70
2023/01/10 12:21:59;;;;;;;3.97;2.60;;;9.40;99.90;;;;;;5000241;28;20477;-71
2023/01/10 12:24:31;;;;;;;6.03;2.60;;;8.80;99.90;;;;;;4998718;28;20472;-71
2023/01/10 12:26:59;;;;;;;8.50;2.07;;;8.80;99.90;;;;;;4995255;28;20439;-71
2023/01/10 12:29:33;;;;;;;4.00;2.10;;;8.80;99.90;;;;;;4999082;28;20477;-72
2023/01/10 12:32:00;;;;;;;5.73;3.40;;;9.20;99.90;;;;;;4997503;28;20494;-71
2023/01/10 12:34:38;;;;;;;3.87;2.10;;;9.30;99.90;;;;;;5006965;28;20449;-70
2023/01/10 12:37:13;;;;;;;7.10;2.77;;;8.70;99.90;;;;;;4986054;28;20484;-71
2023/01/10 12:39:47;;;;;;;4.40;1.73;;;8.40;99.90;;;;;;4990297;28;20453;-71
2023/01/10 12:45:21;;;;;;;5.87;1.90;;;11.00;99.90;;;;;;4990138;28;20476;-72
2023/01/10 12:48:08;;;;;;;4.70;2.00;;;13.00;99.90;;;;;;4992089;28;20434;-70
2023/01/10 12:50:42;;;;;;;7.30;2.50;;;12.60;99.90;;;;;;4999796;28;20438;-71
2023/01/10 12:53:31;;;;;;;3.07;1.83;;;11.40;99.90;;;;;;5002435;28;20461;-71
2023/01/10 12:56:03;;;;;;;5.77;2.60;;;11.20;99.90;;;;;;4994828;28;20441;-71
2023/01/10 12:58:54;;;;;;;2.40;1.87;;;11.70;99.90;;;;;;4990630;28;20474;-71
2023/01/10 13:01:41;;;;;;;2.37;1.60;;;11.60;99.90;;;;;;4987247;28;20466;-71
2023/01/10 13:04:13;;;;;;;4.40;2.00;;;10.60;99.90;;;;;;4998416;28;20467;-71
2023/01/10 13:06:41;;;;;;;4.33;1.60;;;9.80;99.90;;;;;;5018497;28;20434;-72
2023/01/10 13:09:16;;;;;;;4.67;2.30;;;9.20;99.90;;;;;;4994762;28;20433;-71
2023/01/10 13:11:45;;;;;;;5.63;1.90;;;8.80;99.90;;;;;;4997291;28;20477;-70
2023/01/10 13:14:16;;;;;;;5.50;2.00;;;8.60;99.90;;;;;;5007077;28;20491;-70
2023/01/10 13:16:48;;;;;;;7.10;2.37;;;8.30;99.90;;;;;;5005596;28;20425;-71
2023/01/10 13:19:18;;;;;;;6.80;3.40;;;8.10;99.90;;;;;;5001052;28;20438;-70
2023/01/10 13:21:44;;;;;;;3.30;1.67;;;7.90;99.90;;;;;;5004811;28;20464;-71
2023/01/10 13:24:21;;;;;;;5.70;1.60;;;7.90;99.90;;;;;;5001202;28;20439;-71